< < Back
Terminal Aerodrome Forecast


Current Version              Previous Versions:   1  2  3  4  5  6  7  8  9  

Terminal Aerodrome Forecast

190
FTUS44 KMOB 270541
TAFMOB
TAF
KMOB 270541Z 2706/2806 06003KT P6SM SKC
     FM271600 11009KT P6SM SCT050 SCT250
     FM280200 VRB03KT P6SM SKC=

Latest METAR

492
SAUS80 KWBC 271500 CCA
MTRMOB
METAR KMOB 271456Z 09006KT 10SM FEW030 FEW070 SCT250 29/23 A3002 RMK AO2
SLP161 TCU DSNT SE AND SW T02940228 51002


USA.gov is the U.S. government's official web portal to all federal, state and local government web resources and services.